Terminal Aerodrome Forecast
Issued by NWS

Home | Current Version | Previous Version | Text Only | Print | Product List | Glossary On
Versions: 1 2 3 4 5 6 7 8 9 10 11 12 13 14
000
FTUS41 KCAR 222337
TAFHUL
TAF
KHUL 222337Z 2300/2324 18010G20KT P6SM BKN035
     FM230300 19012G22KT P6SM OVC008
      TEMPO 2303/2305 4SM -TSRA OVC003CB
     FM230500 19012G21KT P6SM OVC015
     FM230900 20010G18KT P6SM -SHRA OVC015
     FM231000 21010G18KT P6SM VCSH OVC015=

USA.gov is the U.S. government's official web portal to all federal, state and local government web resources and services.